Time;durP1;ratioP1;P1;durP2;ratioP2;P2;SDS_P1;SDS_P2;PMS_P1;PMS_P2;Temp;Humidity;BMP_temperature;BMP_pressure;BME280_temperature;BME280_humidity;BME280_pressure;Samples;Min_cycle;Max_cycle;Signal;HPM_P1;HPM_P2
2022/12/29 00:01:31;;;;;;;5.35;3.72;;;;;;;15.60;72.42;99972.03;5010151;28;20034;-65
2022/12/29 00:03:57;;;;;;;7.32;4.45;;;;;;;16.26;70.01;99961.53;5006630;28;20029;-67
2022/12/29 00:06:22;;;;;;;6.22;4.80;;;;;;;16.06;70.80;99955.47;5008616;28;20029;-65
2022/12/29 00:08:47;;;;;;;5.05;4.28;;;;;;;16.20;70.01;99956.44;5005345;28;20050;-67
2022/12/29 00:11:19;;;;;;;4.55;4.00;;;;;;;15.95;70.79;99981.00;5007530;28;20126;-66
2022/12/29 00:16:30;;;;;;;6.65;4.35;;;;;;;15.89;71.08;99950.44;5007022;28;20146;-66
2022/12/29 00:18:56;;;;;;;7.88;4.32;;;;;;;16.42;69.25;99951.38;5008213;28;20018;-66
2022/12/29 00:35:45;;;;;;;4.88;3.28;;;;;;;16.34;68.50;99930.28;5007138;28;20053;-65
2022/12/29 00:46:23;;;;;;;4.15;2.88;;;;;;;16.16;69.01;99906.59;5006617;28;20028;-68
2022/12/29 00:51:33;;;;;;;6.90;3.00;;;;;;;17.06;65.42;99894.03;5004208;28;20048;-67
2022/12/29 00:53:58;;;;;;;5.53;3.53;;;;;;;16.44;67.31;99906.59;5004750;28;20027;-67
2022/12/29 00:56:24;;;;;;;4.43;3.20;;;;;;;16.66;66.10;99889.88;5003468;28;20038;-66
2022/12/29 00:58:49;;;;;;;4.10;2.92;;;;;;;16.28;67.46;99888.03;5006309;28;20049;-66
2022/12/29 01:01:14;;;;;;;2.97;2.55;;;;;;;16.62;66.24;99886.94;5024661;28;20474;-66
2022/12/29 01:03:40;;;;;;;5.50;2.92;;;;;;;16.65;66.13;99872.78;5008086;28;20034;-67
2022/12/29 01:06:08;;;;;;;4.55;2.65;;;;;;;16.16;67.67;99887.63;5005486;28;20486;-67
2022/12/29 01:08:35;;;;;;;2.90;2.42;;;;;;;16.48;66.77;99874.28;5003231;28;20057;-67
2022/12/29 01:11:03;;;;;;;3.83;3.42;;;;;;;16.77;65.56;99858.81;5004813;28;20523;-66
2022/12/29 01:13:29;;;;;;;5.60;2.78;;;;;;;16.64;66.03;99857.63;5006698;28;20048;-66
2022/12/29 01:15:55;;;;;;;3.03;2.72;;;;;;;17.10;64.70;99857.84;5001905;28;20038;-66
2022/12/29 01:18:21;;;;;;;4.35;3.08;;;;;;;16.36;66.78;99854.88;5007751;28;20531;-65
2022/12/29 01:20:46;;;;;;;5.65;2.70;;;;;;;15.99;68.76;99860.13;5005603;28;20046;-67
2022/12/29 01:23:12;;;;;;;5.40;3.10;;;;;;;16.29;67.02;99843.59;5006233;28;20049;-66
2022/12/29 01:25:37;;;;;;;3.22;2.47;;;;;;;16.40;67.13;99848.63;5005394;28;20034;-67
2022/12/29 01:28:04;;;;;;;4.75;2.95;;;;;;;17.06;64.45;99845.16;5006993;28;20100;-66
2022/12/29 01:30:30;;;;;;;3.05;2.75;;;;;;;17.07;64.84;99844.03;5003878;28;20128;-65
2022/12/29 01:32:55;;;;;;;3.83;2.90;;;;;;;17.23;64.17;99824.56;5005870;28;20125;-65
2022/12/29 01:35:20;;;;;;;4.07;2.53;;;;;;;16.88;65.28;99845.94;5006133;28;20387;-66
2022/12/29 01:37:46;;;;;;;5.20;3.25;;;;;;;16.98;64.83;99835.72;5005198;28;20034;-70
2022/12/29 01:40:11;;;;;;;4.70;3.60;;;;;;;16.81;65.45;99829.19;5005230;28;20038;-66
2022/12/29 01:42:37;;;;;;;3.75;2.75;;;;;;;16.71;65.78;99832.03;5005287;28;20046;-66
2022/12/29 01:45:13;;;;;;;6.72;2.90;;;;;;;16.63;66.78;99830.75;5004617;28;20041;-67
2022/12/29 01:47:44;;;;;;;4.15;3.20;;;;;;;16.73;65.65;99833.34;5004961;28;20038;-66
2022/12/29 01:50:39;;;;;;;2.80;2.47;;;;;;;16.29;68.17;99835.47;5005400;28;20030;-65
2022/12/29 01:53:11;;;;;;;3.03;2.67;;;;;;;15.93;68.76;99839.59;5019478;28;20038;-66
2022/12/29 01:55:42;;;;;;;3.65;1.88;;;;;;;15.69;69.85;99839.50;5004417;28;20061;-66
2022/12/29 01:58:10;;;;;;;2.55;2.33;;;;;;;16.71;65.57;99849.09;5010011;28;20048;-66
2022/12/29 02:00:37;;;;;;;4.40;2.75;;;;;;;16.80;66.36;99833.81;5012120;28;20045;-66
2022/12/29 02:03:03;;;;;;;6.70;2.50;;;;;;;16.17;67.34;99835.03;5001125;28;20026;-65
2022/12/29 02:05:37;;;;;;;3.10;2.22;;;;;;;16.46;67.72;99844.75;5011724;28;20041;-65
2022/12/29 02:08:03;;;;;;;5.55;2.45;;;;;;;15.71;70.35;99850.88;5010162;28;20033;-66
2022/12/29 02:10:32;;;;;;;5.53;2.33;;;;;;;16.28;68.95;99842.78;5012020;28;20099;-65
2022/12/29 02:12:58;;;;;;;2.45;2.03;;;;;;;15.98;71.18;99845.75;5010455;28;20132;-66
2022/12/29 02:15:42;;;;;;;3.92;2.20;;;;;;;15.84;71.50;99853.75;5011501;28;20466;-65
2022/12/29 02:18:25;;;;;;;5.03;2.30;;;;;;;16.54;70.17;99841.44;5011703;28;20129;-66
2022/12/29 02:21:06;;;;;;;2.67;1.75;;;;;;;15.39;73.41;99845.91;5011849;28;20045;-67
2022/12/29 02:24:09;;;;;;;2.05;1.70;;;;;;;15.35;74.15;99855.69;5011637;28;20045;-67
2022/12/29 02:26:56;;;;;;;1.83;1.60;;;;;;;15.38;73.89;99852.44;5011282;28;20125;-66
2022/12/29 02:30:01;;;;;;;2.90;2.60;;;;;;;15.26;74.85;99851.97;4998173;28;20034;-67
2022/12/29 02:32:52;;;;;;;1.65;1.20;;;;;;;15.46;74.90;99853.78;5025943;28;20041;-67
2022/12/29 02:35:44;;;;;;;2.38;1.75;;;;;;;15.37;74.33;99850.03;4997319;28;20042;-65
2022/12/29 02:38:15;;;;;;;3.17;1.80;;;;;;;15.32;74.65;99858.97;5011746;28;20026;-67
2022/12/29 02:40:48;;;;;;;2.60;1.58;;;;;;;15.21;74.44;99868.25;5011373;28;20068;-67
2022/12/29 02:43:42;;;;;;;1.45;1.35;;;;;;;15.38;74.25;99865.97;5011959;28;20027;-67
2022/12/29 02:46:23;;;;;;;4.10;1.90;;;;;;;15.64;72.87;99851.22;5011440;28;20452;-67
2022/12/29 02:48:59;;;;;;;2.58;1.80;;;;;;;15.63;72.62;99833.34;5011493;28;20053;-64
2022/12/29 02:51:33;;;;;;;5.70;2.35;;;;;;;15.13;73.72;99840.94;5009381;28;20108;-68
2022/12/29 02:56:43;;;;;;;2.10;1.52;;;;;;;15.21;73.29;99841.19;5011743;28;20089;-68
2022/12/29 02:59:10;;;;;;;3.55;1.50;;;;;;;14.85;73.72;99850.56;5011392;28;20034;-66
2022/12/29 03:01:35;;;;;;;3.10;1.83;;;;;;;15.38;72.20;99822.66;5011419;28;20367;-68
2022/12/29 03:04:13;;;;;;;3.28;1.67;;;;;;;15.40;72.57;99835.91;5011646;28;20157;-67
2022/12/29 03:06:51;;;;;;;3.63;1.83;;;;;;;15.95;70.94;99848.25;5011817;28;20049;-65
2022/12/29 03:09:49;;;;;;;6.38;2.13;;;;;;;15.32;72.80;99828.38;5014939;28;20097;-67
2022/12/29 03:12:24;;;;;;;5.43;1.67;;;;;;;15.64;70.70;99836.84;5014560;28;20042;-66
2022/12/29 03:18:15;;;;;;;3.70;1.48;;;;;;;15.67;70.37;99830.84;5015093;28;20084;-67
2022/12/29 03:21:00;;;;;;;5.65;2.17;;;;;;;15.80;69.64;99833.72;5015119;28;20054;-66
2022/12/29 03:23:27;;;;;;;2.70;1.30;;;;;;;15.95;68.72;99837.41;5015251;28;20033;-65
2022/12/29 03:25:58;;;;;;;2.13;1.65;;;;;;;15.64;70.56;99834.16;5015005;28;20042;-66
2022/12/29 03:28:35;;;;;;;4.68;2.13;;;;;;;15.42;70.94;99831.88;5015078;28;20106;-66
2022/12/29 03:31:02;;;;;;;7.28;1.48;;;;;;;15.44;70.33;99829.69;5015609;28;20033;-66
2022/12/29 03:33:29;;;;;;;3.05;1.15;;;;;;;15.92;68.11;99833.34;5014853;28;20045;-66
2022/12/29 03:36:01;;;;;;;5.07;2.10;;;;;;;15.99;68.05;99814.88;5014955;28;20053;-67
2022/12/29 03:38:45;;;;;;;9.40;1.48;;;;;;;15.38;69.93;99829.97;5014868;28;20033;-67
2022/12/29 03:41:23;;;;;;;4.88;1.42;;;;;;;15.27;69.84;99823.00;5014718;28;20093;-67
2022/12/29 03:43:48;;;;;;;5.22;1.40;;;;;;;15.12;69.68;99825.78;5014824;28;20073;-67
2022/12/29 03:46:13;;;;;;;6.38;1.52;;;;;;;15.21;69.37;99810.59;5015019;28;20037;-66
2022/12/29 03:48:39;;;;;;;4.15;1.20;;;;;;;15.48;67.84;99814.50;5013278;28;20045;-67
2022/12/29 03:51:04;;;;;;;3.92;1.00;;;;;;;15.61;67.50;99810.31;5014823;28;20049;-65
2022/12/29 03:53:30;;;;;;;0.90;0.60;;;;;;;15.28;68.96;99805.66;5014414;28;20038;-66
2022/12/29 03:55:55;;;;;;;3.55;1.08;;;;;;;14.95;69.12;99812.63;5013954;28;20037;-67
2022/12/29 03:58:20;;;;;;;2.10;0.90;;;;;;;15.15;68.93;99817.94;5014216;28;20494;-67
2022/12/29 04:00:46;;;;;;;4.30;1.02;;;;;;;15.34;67.37;99816.19;5026816;28;20044;-65
2022/12/29 04:03:11;;;;;;;6.07;1.30;;;;;;;14.90;68.20;99812.66;5022314;28;20044;-67
2022/12/29 04:05:36;;;;;;;4.72;1.83;;;;;;;15.05;68.15;99823.41;5014218;28;20454;-66
2022/12/29 04:08:02;;;;;;;1.70;1.00;;;;;;;15.17;68.12;99828.47;5014047;28;20030;-64
2022/12/29 04:10:27;;;;;;;4.72;1.10;;;;;;;15.49;66.96;99824.22;5014137;28;20037;-66
2022/12/29 04:12:53;;;;;;;1.92;0.65;;;;;;;15.00;68.02;99814.50;5014609;28;20026;-66
2022/12/29 04:15:18;;;;;;;3.97;0.98;;;;;;;15.24;67.89;99837.91;5013936;28;20608;-66
2022/12/29 04:17:43;;;;;;;5.10;1.50;;;;;;;15.11;68.15;99837.72;5013077;28;20041;-65
2022/12/29 04:23:06;;;;;;;4.88;1.10;;;;;;;15.58;67.64;99846.09;5014014;28;20521;-66
2022/12/29 04:25:32;;;;;;;2.85;1.33;;;;;;;15.41;67.40;99842.94;5013755;28;20025;-65
2022/12/29 04:27:57;;;;;;;8.00;2.17;;;;;;;15.93;65.75;99836.88;5013473;28;20401;-67
2022/12/29 04:30:23;;;;;;;5.20;1.40;;;;;;;15.81;65.76;99845.38;5013137;28;20042;-66
2022/12/29 04:32:49;;;;;;;2.33;1.13;;;;;;;15.59;66.99;99847.72;5012975;28;20030;-66
2022/12/29 04:35:14;;;;;;;7.78;0.90;;;;;;;15.79;65.90;99851.09;5013620;28;20105;-66
2022/12/29 04:37:40;;;;;;;1.08;0.60;;;;;;;14.97;68.49;99840.22;5013226;28;21683;-66
2022/12/29 04:40:06;;;;;;;2.55;0.93;;;;;;;15.54;67.18;99840.44;5013408;28;20041;-66
2022/12/29 04:42:31;;;;;;;4.45;1.00;;;;;;;15.25;67.37;99849.53;5012821;28;20030;-66
2022/12/29 04:44:57;;;;;;;4.55;0.98;;;;;;;15.59;66.75;99840.41;5012897;28;20037;-66
2022/12/29 04:47:22;;;;;;;2.00;0.98;;;;;;;15.55;67.47;99838.53;5012134;28;20040;-65
2022/12/29 04:49:48;;;;;;;5.72;1.27;;;;;;;15.86;66.46;99839.13;5012874;28;20084;-66
2022/12/29 04:52:13;;;;;;;1.98;0.93;;;;;;;15.60;67.50;99842.03;4995136;28;20054;-65
2022/12/29 04:54:39;;;;;;;2.92;1.00;;;;;;;15.87;65.78;99841.53;5012641;28;20395;-66
2022/12/29 04:57:04;;;;;;;2.55;1.00;;;;;;;15.50;67.61;99846.69;5012500;28;20038;-66
2022/12/29 04:59:30;;;;;;;2.75;1.30;;;;;;;15.52;66.29;99861.59;5013046;28;20088;-68
2022/12/29 05:01:55;;;;;;;2.83;1.20;;;;;;;15.78;65.64;99857.59;5010912;28;20038;-65
2022/12/29 05:04:21;;;;;;;11.93;2.78;;;;;;;15.60;66.39;99833.91;5012510;28;20034;-66
2022/12/29 05:06:47;;;;;;;8.88;3.33;;;;;;;15.40;65.72;99844.84;5012795;28;20022;-66
2022/12/29 05:09:12;;;;;;;4.55;1.20;;;;;;;15.88;64.12;99826.09;5012362;28;20053;-65
2022/12/29 05:11:38;;;;;;;6.93;1.33;;;;;;;15.82;64.29;99830.75;5012429;28;20034;-66
2022/12/29 05:14:03;;;;;;;6.10;1.60;;;;;;;15.80;64.51;99830.22;5012402;28;20494;-66
2022/12/29 05:16:29;;;;;;;7.72;2.55;;;;;;;15.62;64.42;99839.03;5012505;28;20594;-66
2022/12/29 05:18:54;;;;;;;4.45;1.15;;;;;;;15.93;63.49;99826.03;5013188;28;20089;-67
2022/12/29 05:21:19;;;;;;;8.23;1.60;;;;;;;15.42;64.75;99828.34;5012725;28;20315;-66
2022/12/29 05:23:45;;;;;;;2.17;1.20;;;;;;;15.19;64.34;99834.41;5012802;28;20037;-65
2022/12/29 05:26:10;;;;;;;6.35;1.13;;;;;;;15.06;64.43;99845.84;5012694;28;20569;-66
2022/12/29 05:28:36;;;;;;;3.25;1.10;;;;;;;15.08;64.35;99852.59;5012682;28;20037;-66
2022/12/29 05:31:01;;;;;;;6.55;1.38;;;;;;;14.87;64.45;99842.97;5011110;28;20034;-66
2022/12/29 05:33:27;;;;;;;7.00;1.42;;;;;;;15.31;63.17;99846.50;5012483;28;20089;-68
2022/12/29 05:35:52;;;;;;;3.97;0.73;;;;;;;14.78;64.35;99867.06;5012706;28;20041;-66
2022/12/29 05:38:17;;;;;;;6.43;1.48;;;;;;;14.67;63.52;99870.91;4994795;28;20093;-67
2022/12/29 05:40:43;;;;;;;6.40;1.48;;;;;;;15.10;62.51;99860.44;5012613;28;20034;-67
2022/12/29 05:43:08;;;;;;;6.82;2.20;;;;;;;14.87;63.03;99860.03;5011092;28;20038;-67
2022/12/29 05:45:35;;;;;;;8.48;1.83;;;;;;;15.04;62.34;99864.25;5012898;28;20510;-67
2022/12/29 05:48:03;;;;;;;3.17;1.00;;;;;;;15.46;61.87;99859.19;5012153;28;20124;-66
2022/12/29 05:50:28;;;;;;;4.97;1.35;;;;;;;15.19;62.11;99880.44;5012549;28;20509;-65
2022/12/29 05:52:54;;;;;;;8.90;1.52;;;;;;;15.07;62.30;99872.66;5027683;28;20038;-68
2022/12/29 05:55:19;;;;;;;7.55;1.95;;;;;;;15.60;61.41;99871.81;5012869;28;20056;-67
2022/12/29 05:57:45;;;;;;;5.18;1.45;;;;;;;14.94;63.23;99887.56;5012294;28;20061;-66
2022/12/29 06:00:11;;;;;;;8.73;1.27;;;;;;;15.26;62.89;99879.03;5012286;28;20034;-67
2022/12/29 06:02:36;;;;;;;5.85;1.10;;;;;;;15.18;62.99;99898.56;5011791;28;20037;-66
2022/12/29 06:05:01;;;;;;;12.10;1.73;;;;;;;14.84;64.13;99882.19;5012335;28;20038;-66
2022/12/29 06:07:27;;;;;;;6.28;1.48;;;;;;;14.90;64.09;99893.81;5012375;28;20025;-67
2022/12/29 06:09:52;;;;;;;8.20;1.77;;;;;;;15.24;63.80;99875.78;5012607;28;20057;-66
2022/12/29 06:12:18;;;;;;;18.30;2.95;;;;;;;14.91;64.10;99890.84;5012069;28;20045;-67
2022/12/29 06:14:43;;;;;;;7.78;1.55;;;;;;;14.79;64.63;99890.34;5012202;28;20045;-67
2022/12/29 06:17:09;;;;;;;5.20;1.40;;;;;;;15.06;63.75;99903.47;5011944;28;20044;-66
2022/12/29 06:19:34;;;;;;;10.15;2.20;;;;;;;15.11;63.88;99914.31;5012335;28;20025;-67
2022/12/29 06:22:00;;;;;;;9.32;2.25;;;;;;;14.58;65.18;99905.00;4992764;28;20033;-68
2022/12/29 06:24:25;;;;;;;8.77;2.05;;;;;;;14.73;65.88;99914.97;5011780;28;20033;-66
2022/12/29 06:26:50;;;;;;;4.45;1.55;;;;;;;14.71;65.18;99899.00;5011755;28;20041;-67
2022/12/29 06:29:16;;;;;;;12.55;2.83;;;;;;;14.92;65.44;99910.56;5009481;28;20517;-67
2022/12/29 06:31:45;;;;;;;10.43;1.85;;;;;;;14.45;67.14;99913.66;5011081;28;20041;-66
2022/12/29 06:34:11;;;;;;;9.63;2.15;;;;;;;14.05;68.52;99933.38;5009768;28;20072;-66
2022/12/29 06:36:36;;;;;;;13.48;1.77;;;;;;;14.76;65.61;99915.22;5011535;28;20053;-66
2022/12/29 06:39:02;;;;;;;13.60;2.08;;;;;;;14.51;66.63;99917.16;5009241;28;20058;-65
2022/12/29 06:41:27;;;;;;;16.63;2.67;;;;;;;14.33;67.63;99909.66;5011176;28;20033;-66
2022/12/29 06:43:53;;;;;;;12.77;3.33;;;;;;;14.46;66.62;99928.81;5011470;28;20046;-66
2022/12/29 06:46:18;;;;;;;7.53;1.98;;;;;;;14.42;66.27;99919.63;5007346;28;20177;-65
2022/12/29 06:48:43;;;;;;;10.05;2.00;;;;;;;14.45;65.99;99929.06;5010692;28;20133;-66
2022/12/29 06:51:09;;;;;;;9.43;1.98;;;;;;;15.21;64.48;99924.25;5011191;28;20048;-68
2022/12/29 06:53:34;;;;;;;11.90;1.63;;;;;;;14.45;66.44;99918.25;5011444;28;20112;-66
2022/12/29 06:55:59;;;;;;;13.60;3.22;;;;;;;14.76;64.63;99934.16;5011560;28;20097;-67
2022/12/29 06:58:25;;;;;;;8.52;1.33;;;;;;;14.83;64.15;99940.09;5011716;28;20069;-65
2022/12/29 07:00:50;;;;;;;10.23;2.15;;;;;;;14.85;63.43;99932.53;5012089;28;20037;-65
2022/12/29 07:03:16;;;;;;;13.05;2.13;;;;;;;14.71;63.93;99942.28;5011296;28;20042;-66
2022/12/29 07:05:41;;;;;;;14.45;2.58;;;;;;;15.17;62.65;99937.56;5025797;28;20042;-67
2022/12/29 07:08:07;;;;;;;8.45;1.38;;;;;;;15.28;61.75;99941.81;5011366;28;20108;-67
2022/12/29 07:10:32;;;;;;;9.15;1.50;;;;;;;14.57;64.19;99943.94;5011334;28;20041;-65
2022/12/29 07:12:58;;;;;;;11.02;1.90;;;;;;;14.49;63.59;99955.28;5012138;28;20207;-66
2022/12/29 07:15:23;;;;;;;18.60;2.35;;;;;;;14.78;62.38;99933.91;5011082;28;20042;-66
2022/12/29 07:17:52;;;;;;;15.20;3.33;;;;;;;14.87;61.71;99945.75;5010899;28;20030;-67
2022/12/29 07:20:17;;;;;;;7.93;2.03;;;;;;;14.42;62.87;99957.47;5010675;28;20038;-67
2022/12/29 07:22:43;;;;;;;9.30;1.48;;;;;;;14.58;62.91;99961.78;5011659;28;20037;-67
2022/12/29 07:25:08;;;;;;;6.88;1.63;;;;;;;14.18;64.05;99947.44;5011747;28;20081;-65
2022/12/29 07:27:34;;;;;;;11.10;2.42;;;;;;;14.77;62.77;99943.91;5009974;28;20092;-65
2022/12/29 07:29:59;;;;;;;10.30;2.50;;;;;;;14.53;63.21;99950.16;5009344;28;20034;-67
2022/12/29 07:32:24;;;;;;;9.85;1.90;;;;;;;14.18;64.95;99959.06;5011052;28;20042;-66
2022/12/29 07:34:50;;;;;;;14.05;3.70;;;;;;;14.94;61.55;99974.13;4993717;28;20553;-66
2022/12/29 07:37:16;;;;;;;11.40;2.55;;;;;;;14.76;62.07;99982.84;5011740;28;20439;-66
2022/12/29 07:39:41;;;;;;;14.00;2.85;;;;;;;14.81;61.52;99985.53;5011181;28;20041;-65
2022/12/29 07:42:06;;;;;;;13.85;2.20;;;;;;;14.84;61.86;99959.81;5011275;28;20081;-65
2022/12/29 07:44:32;;;;;;;19.42;3.22;;;;;;;14.60;63.13;99964.22;5010994;28;20048;-65
2022/12/29 07:46:57;;;;;;;9.07;1.42;;;;;;;14.55;62.22;99967.72;5010970;28;20470;-67
2022/12/29 07:49:22;;;;;;;18.63;1.90;;;;;;;14.57;62.55;99964.75;5010813;28;20056;-66
2022/12/29 07:51:48;;;;;;;14.10;2.72;;;;;;;14.86;61.38;99953.06;5026550;28;20196;-65
2022/12/29 07:54:13;;;;;;;15.10;3.22;;;;;;;14.47;62.29;99965.56;5013709;28;20581;-66
2022/12/29 07:56:39;;;;;;;9.00;2.22;;;;;;;14.46;62.11;99957.75;5028824;28;20085;-66
2022/12/29 07:59:04;;;;;;;8.88;1.98;;;;;;;14.63;61.56;99959.06;5014237;28;20120;-67
2022/12/29 08:01:30;;;;;;;11.65;3.15;;;;;;;14.49;61.40;99968.00;5014446;28;20092;-65
2022/12/29 08:03:55;;;;;;;8.43;2.67;;;;;;;14.27;61.56;99973.66;5014526;28;20033;-66
2022/12/29 08:06:21;;;;;;;9.65;2.88;;;;;;;14.51;61.12;99973.94;5014001;28;20034;-66
2022/12/29 08:08:46;;;;;;;6.68;1.67;;;;;;;14.11;62.18;99963.94;5014062;28;20133;-66
2022/12/29 08:11:12;;;;;;;8.05;2.22;;;;;;;14.74;60.63;99967.97;5014423;28;20113;-66
2022/12/29 08:13:37;;;;;;;5.85;1.58;;;;;;;14.20;61.42;99973.13;5014113;28;20036;-65
2022/12/29 08:16:03;;;;;;;7.00;1.75;;;;;;;14.80;59.85;99967.69;5014634;28;20046;-65
2022/12/29 08:18:28;;;;;;;6.57;1.95;;;;;;;14.14;62.02;99993.09;5013942;28;20030;-66
2022/12/29 08:20:53;;;;;;;8.63;2.05;;;;;;;14.07;62.50;99971.75;5014232;28;20045;-65
2022/12/29 08:23:19;;;;;;;8.38;1.40;;;;;;;14.49;61.18;99976.09;5013787;28;20574;-67
2022/12/29 08:25:44;;;;;;;9.40;2.28;;;;;;;14.20;62.20;99983.94;5013552;28;20517;-68
2022/12/29 08:28:10;;;;;;;9.50;1.95;;;;;;;14.10;62.08;99976.63;5014322;28;20161;-65
2022/12/29 08:30:36;;;;;;;9.23;1.92;;;;;;;15.02;59.71;99975.47;4996362;28;20037;-66
2022/12/29 08:33:01;;;;;;;12.88;2.20;;;;;;;14.96;59.80;99981.97;5013614;28;20097;-65
2022/12/29 08:35:27;;;;;;;6.88;2.03;;;;;;;14.80;60.26;99958.78;5013610;28;20046;-65
2022/12/29 08:37:52;;;;;;;8.60;1.67;;;;;;;14.72;60.83;99952.00;5028090;28;20390;-64
2022/12/29 08:40:18;;;;;;;9.02;2.97;;;;;;;14.89;60.74;99978.75;5033783;28;20064;-65
2022/12/29 08:42:43;;;;;;;12.43;2.08;;;;;;;14.86;60.49;99965.75;5033546;28;20048;-65
2022/12/29 08:45:09;;;;;;;8.68;2.38;;;;;;;14.93;60.49;99972.53;5033369;28;20038;-66
2022/12/29 08:47:34;;;;;;;14.65;3.95;;;;;;;14.21;63.09;99974.72;5033433;28;20049;-67
2022/12/29 08:49:59;;;;;;;12.13;2.42;;;;;;;14.62;62.72;99976.34;5019170;28;20509;-66
2022/12/29 08:52:25;;;;;;;16.60;3.55;;;;;;;15.05;61.50;99974.13;5013636;28;20038;-65
2022/12/29 08:54:50;;;;;;;10.63;3.05;;;;;;;14.51;62.50;99979.34;5013696;28;20113;-67
2022/12/29 08:57:16;;;;;;;16.08;3.47;;;;;;;14.85;61.47;99983.91;5013422;28;20049;-65
2022/12/29 08:59:41;;;;;;;14.93;2.55;;;;;;;14.68;61.67;99991.50;4995265;28;20058;-66
2022/12/29 09:02:11;;;;;;;15.57;2.20;;;;;;;14.51;63.29;99980.16;4995385;28;20037;-66
2022/12/29 09:04:36;;;;;;;10.20;1.80;;;;;;;14.73;63.21;99979.88;5012321;28;20085;-65
2022/12/29 09:07:02;;;;;;;13.45;2.42;;;;;;;14.61;64.34;99969.34;5013724;28;20037;-65
2022/12/29 09:09:27;;;;;;;13.23;2.47;;;;;;;14.28;64.88;99969.09;5009109;28;20520;-66
2022/12/29 09:11:53;;;;;;;16.80;3.13;;;;;;;14.27;63.67;99980.97;5008986;28;20267;-67
2022/12/29 09:14:19;;;;;;;11.57;3.40;;;;;;;14.80;63.35;99961.47;4995565;28;20572;-65
2022/12/29 09:19:28;;;;;;;11.88;3.05;;;;;;;14.77;61.79;99960.13;5012003;28;20093;-65
2022/12/29 09:21:53;;;;;;;15.13;2.60;;;;;;;14.65;61.96;99958.78;5011569;28;20026;-67
2022/12/29 09:24:18;;;;;;;15.65;2.20;;;;;;;14.37;62.59;99970.97;5010944;28;20128;-65
2022/12/29 09:26:44;;;;;;;6.80;1.90;;;;;;;14.86;62.01;99963.88;5011035;28;20042;-64
2022/12/29 09:29:09;;;;;;;12.38;2.08;;;;;;;14.68;61.09;99975.28;5005914;28;20121;-65
2022/12/29 09:31:34;;;;;;;11.30;2.22;;;;;;;14.50;62.03;99975.03;5023930;28;20113;-66
2022/12/29 09:34:01;;;;;;;17.17;2.67;;;;;;;14.79;61.07;99971.47;5009260;28;20041;-66
2022/12/29 09:36:26;;;;;;;20.05;3.22;;;;;;;15.19;60.43;99975.16;4984137;28;20136;-65
2022/12/29 09:38:53;;;;;;;11.60;3.05;;;;;;;14.85;61.60;99973.09;5004901;28;20133;-64
2022/12/29 09:41:32;;;;;;;8.77;2.55;;;;;;;14.63;62.61;99983.41;5005949;28;20061;-66
2022/12/29 09:44:18;;;;;;;8.75;2.10;;;;;;;14.74;62.22;99979.59;5007648;28;20037;-67
2022/12/29 09:46:47;;;;;;;9.75;1.95;;;;;;;14.21;63.38;99992.84;5006863;28;20088;-66
2022/12/29 09:49:40;;;;;;;11.90;2.00;;;;;;;14.98;61.46;100008.78;5007570;28;20020;-65
2022/12/29 09:52:15;;;;;;;15.48;2.42;;;;;;;14.19;63.01;100012.00;5007519;28;20053;-67
2022/12/29 09:55:02;;;;;;;12.32;2.42;;;;;;;14.17;63.98;100030.38;5006177;28;20041;-67
2022/12/29 09:57:44;;;;;;;9.23;1.80;;;;;;;14.63;62.40;100026.66;5006936;28;20390;-66
2022/12/29 10:00:19;;;;;;;12.25;3.70;;;;;;;15.14;61.55;100024.69;5007304;28;20076;-66
2022/12/29 10:02:47;;;;;;;6.82;2.10;;;;;;;14.86;62.72;100028.81;5003173;28;20046;-66
2022/12/29 10:05:26;;;;;;;5.75;1.40;;;;;;;14.66;64.33;100038.84;5008970;28;20054;-65
2022/12/29 10:08:05;;;;;;;12.10;2.33;;;;;;;14.09;66.55;100030.94;5006321;28;20054;-66
2022/12/29 10:10:44;;;;;;;13.63;2.10;;;;;;;14.18;67.37;100042.84;5006914;28;20037;-65
2022/12/29 10:13:38;;;;;;;13.90;3.28;;;;;;;13.84;69.02;100042.47;5007773;28;20036;-68
2022/12/29 10:16:14;;;;;;;8.20;1.90;;;;;;;13.95;69.04;100060.31;4927773;29;20480;-67
2022/12/29 10:19:12;;;;;;;7.38;2.30;;;;;;;13.96;69.64;100061.16;4929411;29;20047;-67
2022/12/29 10:22:05;;;;;;;16.02;3.08;;;;;;;14.28;69.26;100053.69;4932320;29;20042;-66
2022/12/29 10:24:35;;;;;;;18.73;2.13;;;;;;;13.89;70.70;100082.22;4930109;29;20103;-65
2022/12/29 10:27:01;;;;;;;5.80;1.73;;;;;;;13.51;72.51;100067.19;4927824;29;20040;-66
2022/12/29 10:29:33;;;;;;;11.45;3.17;;;;;;;13.77;71.93;100068.94;4931579;29;20219;-65
2022/12/29 10:32:10;;;;;;;7.15;1.98;;;;;;;13.55;72.61;100080.97;4930856;29;20036;-66
2022/12/29 10:34:44;;;;;;;9.10;1.95;;;;;;;13.66;72.46;100072.66;4929866;29;20048;-66
2022/12/29 10:37:22;;;;;;;8.45;1.58;;;;;;;13.39;73.60;100096.28;4931320;29;20135;-65
2022/12/29 10:39:53;;;;;;;10.82;2.70;;;;;;;13.84;73.11;100088.38;4930429;29;20050;-66
2022/12/29 10:42:29;;;;;;;;;;;;;;;13.83;71.67;100094.88;4930875;29;20063;-66
2022/12/29 10:44:56;;;;;;;9.55;2.80;;;;;;;13.89;71.86;100101.94;4941108;29;19989;-66
2022/12/29 10:47:29;;;;;;;12.38;2.17;;;;;;;14.24;71.34;100103.09;4930717;29;20043;-67
2022/12/29 10:49:58;;;;;;;11.02;2.20;;;;;;;13.77;71.65;100100.53;4939425;29;20047;-66
2022/12/29 10:52:26;;;;;;;11.65;1.98;;;;;;;14.47;70.42;100099.91;4961095;28;20433;-65
2022/12/29 10:55:02;;;;;;;6.40;1.67;;;;;;;13.85;72.04;100117.03;5006836;28;20560;-68
2022/12/29 10:57:27;;;;;;;6.10;2.00;;;;;;;13.85;72.52;100127.84;5004893;28;20049;-67
2022/12/29 10:59:53;;;;;;;11.60;2.78;;;;;;;13.96;72.36;100121.41;5007609;28;20042;-66
2022/12/29 11:02:53;;;;;;;6.80;1.77;;;;;;;13.94;72.09;100145.16;5007570;28;20042;-66
2022/12/29 11:05:28;;;;;;;7.05;1.95;;;;;;;14.05;71.77;100133.28;5006301;28;20030;-66
2022/12/29 11:07:59;;;;;;;9.20;2.40;;;;;;;14.54;70.33;100128.34;5004270;28;20418;-66
2022/12/29 11:10:38;;;;;;;12.55;3.70;;;;;;;14.16;70.96;100144.16;5004870;28;20042;-67
2022/12/29 11:13:26;;;;;;;10.98;2.20;;;;;;;14.24;71.74;100166.06;5007653;28;20034;-65
2022/12/29 11:15:51;;;;;;;7.05;1.55;;;;;;;13.93;71.79;100140.03;5007464;28;20056;-66
2022/12/29 11:18:33;;;;;;;8.65;2.15;;;;;;;14.06;71.86;100161.97;5006638;28;20033;-65
2022/12/29 11:21:02;;;;;;;7.90;2.53;;;;;;;14.07;71.28;100160.06;5004841;28;20058;-67
2022/12/29 11:23:32;;;;;;;13.70;1.98;;;;;;;13.44;73.60;100171.91;5006409;28;20040;-65
2022/12/29 11:26:09;;;;;;;10.90;3.38;;;;;;;14.42;71.67;100160.22;5006945;28;20030;-66
2022/12/29 11:28:35;;;;;;;10.88;2.47;;;;;;;13.59;73.12;100190.06;5008545;28;20133;-66
2022/12/29 11:31:02;;;;;;;23.50;6.82;;;;;;;13.61;74.19;100196.00;5011160;28;20041;-68
2022/12/29 11:33:32;;;;;;;13.77;3.03;;;;;;;13.98;72.88;100177.84;5010130;28;20041;-67
2022/12/29 11:36:13;;;;;;;8.80;2.42;;;;;;;13.73;73.21;100189.34;5010560;28;20401;-66
2022/12/29 11:38:41;;;;;;;16.35;2.47;;;;;;;13.43;74.86;100188.31;5009709;28;20046;-66
2022/12/29 11:41:13;;;;;;;6.50;1.70;;;;;;;13.63;74.83;100202.78;5009212;28;20502;-65
2022/12/29 11:43:43;;;;;;;17.63;2.60;;;;;;;13.95;73.08;100194.59;5010666;28;20033;-66
2022/12/29 11:46:16;;;;;;;27.70;2.50;;;;;;;13.88;72.89;100210.22;5009184;28;20125;-65
2022/12/29 11:48:42;;;;;;;15.15;3.42;;;;;;;14.39;71.41;100211.28;5009314;28;20120;-66
2022/12/29 11:51:09;;;;;;;14.68;3.50;;;;;;;14.11;72.41;100202.50;5010608;28;20045;-65
2022/12/29 11:53:39;;;;;;;17.95;2.20;;;;;;;14.37;71.81;100224.28;5010176;28;21555;-65
2022/12/29 11:56:10;;;;;;;21.13;3.90;;;;;;;14.77;70.62;100211.66;5008463;28;20068;-66
2022/12/29 11:58:37;;;;;;;17.80;3.30;;;;;;;14.23;71.77;100223.88;5008593;28;20034;-67
2022/12/29 12:01:19;;;;;;;20.02;3.83;;;;;;;14.66;69.67;100225.44;5011353;28;20013;-66
2022/12/29 12:04:03;;;;;;;16.67;3.60;;;;;;;14.40;70.60;100229.13;4992739;28;20104;-66
2022/12/29 12:06:31;;;;;;;14.60;3.22;;;;;;;14.40;70.15;100231.84;5007826;28;20048;-65
2022/12/29 12:09:03;;;;;;;10.20;2.05;;;;;;;14.18;70.04;100226.59;5010177;28;20146;-67
2022/12/29 12:11:37;;;;;;;14.27;3.00;;;;;;;14.70;69.16;100223.81;5009202;28;20037;-65
2022/12/29 12:14:20;;;;;;;18.27;3.63;;;;;;;14.78;68.38;100231.41;5010218;28;20081;-66
2022/12/29 12:16:55;;;;;;;17.08;3.53;;;;;;;14.89;67.26;100224.94;5007982;28;20481;-65
2022/12/29 12:19:23;;;;;;;22.40;3.97;;;;;;;14.37;69.47;100241.28;4993324;28;20033;-66